Time;durP1;ratioP1;P1;durP2;ratioP2;P2;SDS_P1;SDS_P2;PMS_P1;PMS_P2;Temp;Humidity;BMP_temperature;BMP_pressure;BME280_temperature;BME280_humidity;BME280_pressure;Samples;Min_cycle;Max_cycle;Signal;HPM_P1;HPM_P2
2021/04/07 00:02:56;;;;;;;1.90;0.70;;;;;;;2.94;45.89;101164.16;3994525;31;15145084;-74
2021/04/07 00:05:26;;;;;;;2.42;0.82;;;;;;;2.94;45.89;101164.16;4453962;32;20072;-73
2021/04/07 00:07:54;;;;;;;5.68;0.75;;;;;;;2.50;45.81;101155.63;4456315;32;20020;-74
2021/04/07 00:10:21;;;;;;;4.15;0.88;;;;;;;2.54;46.02;101166.78;4455445;32;20128;-74
2021/04/07 00:12:47;;;;;;;3.20;1.10;;;;;;;2.59;44.17;101164.50;4457164;32;20052;-73
2021/04/07 00:15:19;;;;;;;5.10;0.70;;;;;;;2.68;43.85;101169.78;4455538;32;20098;-73
2021/04/07 00:17:46;;;;;;;3.97;0.88;;;;;;;2.75;44.48;101176.22;4456423;32;20192;-73
2021/04/07 00:20:14;;;;;;;4.30;1.17;;;;;;;2.74;43.63;101171.03;4457684;32;20084;-74
2021/04/07 00:22:41;;;;;;;2.65;0.80;;;;;;;2.70;44.54;101173.00;4453771;32;20084;-73
2021/04/07 00:25:08;;;;;;;4.05;0.85;;;;;;;2.70;43.63;101167.44;4444255;32;20472;-75
2021/04/07 00:27:36;;;;;;;7.22;0.60;;;;;;;2.70;43.98;101170.22;4456333;32;20492;-73
2021/04/07 00:30:03;;;;;;;3.83;0.62;;;;;;;2.69;44.50;101172.16;4453067;32;20069;-73
2021/04/07 00:32:29;;;;;;;3.22;0.70;;;;;;;2.69;44.22;101172.16;4456789;32;20061;-73
2021/04/07 00:34:55;;;;;;;2.60;0.60;;;;;;;2.63;44.03;101167.31;4455635;32;20056;-73
2021/04/07 00:37:21;;;;;;;3.97;0.70;;;;;;;2.65;44.08;101168.56;4454343;32;20100;-73
2021/04/07 00:39:46;;;;;;;3.65;1.15;;;;;;;2.55;45.50;101179.50;4453598;32;20389;-73
2021/04/07 00:42:12;;;;;;;2.53;0.75;;;;;;;2.45;45.93;101180.94;4456665;32;20089;-73
2021/04/07 00:44:38;;;;;;;2.28;0.60;;;;;;;2.35;45.29;101178.78;4456613;32;20428;-73
2021/04/07 00:47:04;;;;;;;8.00;2.12;;;;;;;2.37;45.35;101183.97;4454857;32;20102;-73
2021/04/07 00:49:29;;;;;;;10.02;0.88;;;;;;;2.37;45.84;101189.53;4455683;32;20086;-73
2021/04/07 00:51:56;;;;;;;4.75;1.42;;;;;;;2.28;46.04;101187.03;4453022;32;20029;-73
2021/04/07 00:54:22;;;;;;;6.43;1.20;;;;;;;2.21;46.19;101183.31;4455728;32;20081;-73
2021/04/07 00:56:49;;;;;;;3.72;1.00;;;;;;;2.14;46.88;101192.31;4452937;32;20084;-74
2021/04/07 00:59:16;;;;;;;5.65;0.88;;;;;;;2.12;47.28;101191.09;4452763;32;20030;-73
2021/04/07 01:01:42;;;;;;;8.57;1.30;;;;;;;2.04;47.60;101188.22;4447236;32;20067;-73
2021/04/07 01:04:09;;;;;;;6.43;0.82;;;;;;;1.96;48.41;101189.25;4441164;32;20049;-73
2021/04/07 01:06:38;;;;;;;4.00;0.80;;;;;;;1.93;48.02;101192.75;4437717;32;20077;-73
2021/04/07 01:09:04;;;;;;;5.68;0.75;;;;;;;1.86;48.16;101187.09;4439682;32;20060;-73
2021/04/07 01:11:29;;;;;;;2.40;0.73;;;;;;;1.81;48.97;101189.37;4440745;32;20069;-73
2021/04/07 01:13:55;;;;;;;5.45;0.75;;;;;;;1.72;48.88;101175.72;4429970;32;20069;-73
2021/04/07 01:16:22;;;;;;;11.50;1.42;;;;;;;1.72;48.21;101206.22;4427986;32;20439;-73
2021/04/07 01:18:48;;;;;;;4.22;0.93;;;;;;;1.75;47.44;101202.72;4427318;32;20030;-73
2021/04/07 01:21:14;;;;;;;4.87;1.00;;;;;;;1.76;47.44;101193.25;4430703;32;21105;-74
2021/04/07 01:23:47;;;;;;;2.95;0.60;;;;;;;1.75;47.65;101193.63;4431395;32;20207;-73
2021/04/07 01:26:14;;;;;;;4.37;0.85;;;;;;;1.79;47.52;101200.03;4432848;32;20079;-73
2021/04/07 01:28:40;;;;;;;5.07;1.02;;;;;;;1.80;47.84;101196.06;4429611;32;20128;-73
2021/04/07 01:31:08;;;;;;;3.35;0.80;;;;;;;1.73;48.09;101194.00;4426777;32;20108;-73
2021/04/07 01:33:35;;;;;;;2.72;0.50;;;;;;;1.71;47.77;101204.62;4427481;32;20102;-73
2021/04/07 01:36:01;;;;;;;5.35;0.68;;;;;;;1.75;46.76;101191.62;4430362;32;20057;-73
2021/04/07 01:38:27;;;;;;;2.15;0.40;;;;;;;1.79;46.53;101197.25;4430000;32;20034;-74
2021/04/07 01:40:55;;;;;;;1.50;0.37;;;;;;;1.83;46.46;101193.37;4429021;32;20370;-73
2021/04/07 01:43:23;;;;;;;4.70;0.60;;;;;;;1.86;46.17;101191.81;4431319;32;20071;-73
2021/04/07 01:45:50;;;;;;;3.78;0.43;;;;;;;1.85;46.18;101193.78;4428761;32;20142;-73
2021/04/07 01:48:17;;;;;;;2.80;0.60;;;;;;;1.82;46.61;101194.56;4426666;32;20022;-73
2021/04/07 01:50:48;;;;;;;7.97;0.50;;;;;;;1.86;47.16;101189.06;4430374;32;20071;-73
2021/04/07 01:53:16;;;;;;;5.47;0.90;;;;;;;1.87;47.33;101188.69;4426602;32;20450;-73
2021/04/07 01:55:42;;;;;;;5.25;0.55;;;;;;;1.79;47.12;101195.28;4430690;32;20022;-73
2021/04/07 01:58:08;;;;;;;8.77;0.70;;;;;;;1.89;46.06;101194.69;4427674;32;20102;-73
2021/04/07 02:00:33;;;;;;;2.53;0.40;;;;;;;2.03;45.74;101185.81;4428150;32;20073;-73
2021/04/07 02:03:03;;;;;;;3.75;0.70;;;;;;;2.04;45.86;101192.94;4428889;32;20105;-73
2021/04/07 02:05:29;;;;;;;1.77;0.40;;;;;;;1.97;46.06;101182.50;4427945;32;20060;-73
2021/04/07 02:07:55;;;;;;;5.18;0.43;;;;;;;1.95;46.24;101182.09;4415794;32;20508;-73
2021/04/07 02:10:21;;;;;;;3.15;0.52;;;;;;;1.97;46.29;101182.50;4427482;32;20489;-73
2021/04/07 02:12:56;;;;;;;2.03;0.43;;;;;;;1.92;47.02;101182.03;4428921;32;20418;-73
2021/04/07 02:15:23;;;;;;;;;;;;;;;1.88;47.01;101181.94;4428732;32;20034;-73
2021/04/07 02:17:49;;;;;;;3.65;0.47;;;;;;;1.85;46.64;101184.69;4428969;32;19937;-73
2021/04/07 02:20:16;;;;;;;2.75;1.02;;;;;;;1.84;46.54;101185.84;4427975;32;20158;-73
2021/04/07 02:22:42;;;;;;;8.18;1.25;;;;;;;1.80;47.24;101184.97;4431251;32;20430;-73
2021/04/07 02:25:10;;;;;;;3.60;1.48;;;;;;;1.73;47.84;101187.62;4427546;32;20033;-73
2021/04/07 02:27:36;;;;;;;5.18;0.75;;;;;;;1.71;48.56;101193.53;4423883;32;20026;-73
2021/04/07 02:30:06;;;;;;;5.85;1.12;;;;;;;1.64;49.04;101207.28;4431024;32;20612;-73
2021/04/07 02:32:32;;;;;;;8.18;1.40;;;;;;;1.66;48.28;101201.38;4431186;32;20030;-73
2021/04/07 02:34:57;;;;;;;5.80;0.77;;;;;;;1.56;49.53;101199.19;4429821;32;20115;-73
2021/04/07 02:37:23;;;;;;;3.83;0.77;;;;;;;1.51;49.63;101191.16;4428763;32;20037;-73
2021/04/07 02:39:49;;;;;;;8.32;0.73;;;;;;;1.48;49.48;101195.47;4427903;32;20046;-73
2021/04/07 02:42:18;;;;;;;2.30;0.82;;;;;;;1.50;49.01;101197.88;4429567;32;20035;-74
2021/04/07 02:44:43;;;;;;;2.95;0.55;;;;;;;1.55;49.04;101192.03;4430023;32;20072;-73
2021/04/07 02:47:09;;;;;;;2.37;0.60;;;;;;;1.52;48.92;101192.75;4425874;32;20093;-73
2021/04/07 02:49:35;;;;;;;2.42;0.90;;;;;;;1.50;48.37;101186.78;4427295;32;20066;-75
2021/04/07 02:52:02;;;;;;;6.05;0.45;;;;;;;1.47;48.57;101185.53;4426166;32;20142;-74
2021/04/07 02:54:27;;;;;;;7.07;0.70;;;;;;;1.41;48.92;101178.69;4414337;32;20100;-74
2021/04/07 02:56:54;;;;;;;3.75;0.60;;;;;;;1.48;47.91;101187.13;4414696;32;20037;-74
2021/04/07 02:59:20;;;;;;;8.38;0.75;;;;;;;1.54;47.84;101196.78;4427610;32;20396;-74
2021/04/07 03:01:45;;;;;;;2.85;0.70;;;;;;;1.61;47.35;101198.88;4425065;32;20057;-73
2021/04/07 03:04:13;;;;;;;3.60;0.50;;;;;;;1.66;47.17;101204.16;4426334;32;20070;-74
2021/04/07 03:06:39;;;;;;;2.03;0.32;;;;;;;1.68;46.97;101196.25;4429013;32;20070;-74
2021/04/07 03:09:05;;;;;;;3.28;0.40;;;;;;;1.63;47.44;101193.78;4426429;32;20057;-74
2021/04/07 03:11:31;;;;;;;3.40;0.40;;;;;;;1.62;47.23;101206.84;4430608;32;20096;-74
2021/04/07 03:13:57;;;;;;;3.05;0.50;;;;;;;1.60;47.40;101200.06;4428371;32;20389;-74
2021/04/07 03:16:23;;;;;;;3.28;0.60;;;;;;;1.61;47.52;101205.25;4425280;32;20077;-74
2021/04/07 03:18:48;;;;;;;2.33;0.68;;;;;;;1.61;47.41;101202.47;4426698;32;20427;-74
2021/04/07 03:21:14;;;;;;;4.72;0.50;;;;;;;1.66;47.32;101204.16;4427005;32;20084;-74
2021/04/07 03:23:40;;;;;;;2.67;0.40;;;;;;;1.67;47.28;101203.78;4425894;32;20087;-74
2021/04/07 03:26:05;;;;;;;5.68;0.50;;;;;;;1.66;47.34;101202.16;4425910;32;20048;-74
2021/04/07 03:28:31;;;;;;;20.80;0.88;;;;;;;1.65;47.43;101210.84;4427542;32;20150;-73
2021/04/07 03:30:57;;;;;;;1.80;0.75;;;;;;;1.54;47.94;101209.84;4427285;32;20440;-73
2021/04/07 03:33:26;;;;;;;2.50;0.80;;;;;;;1.47;48.32;101199.41;4426184;32;20059;-74
2021/04/07 03:35:52;;;;;;;3.95;0.62;;;;;;;1.49;48.46;101213.72;4430307;32;20100;-74
2021/04/07 03:38:19;;;;;;;0.77;0.28;;;;;;;1.44;48.65;101207.69;4425627;32;20085;-74
2021/04/07 03:40:45;;;;;;;2.25;0.52;;;;;;;1.47;48.25;101209.69;4428174;32;20033;-74
2021/04/07 03:43:14;;;;;;;1.85;0.55;;;;;;;1.50;48.28;101208.97;4427367;32;20049;-73
2021/04/07 03:45:42;;;;;;;2.47;0.50;;;;;;;1.43;48.60;101206.87;4429339;32;20089;-74
2021/04/07 03:48:11;;;;;;;7.30;0.40;;;;;;;1.36;48.78;101206.72;4426756;32;20200;-74
2021/04/07 03:50:38;;;;;;;4.45;0.65;;;;;;;1.37;48.58;101210.28;4426717;32;20094;-74
2021/04/07 03:53:05;;;;;;;1.35;0.40;;;;;;;1.35;48.97;101210.66;4424747;32;20080;-74
2021/04/07 03:55:31;;;;;;;4.60;0.82;;;;;;;1.51;48.09;101203.03;4428045;32;20093;-74
2021/04/07 03:57:57;;;;;;;8.07;0.68;;;;;;;1.64;47.81;101212.84;4428178;32;20049;-73
2021/04/07 04:00:23;;;;;;;6.07;0.80;;;;;;;1.57;47.94;101218.22;4424335;32;20034;-73
2021/04/07 04:02:48;;;;;;;3.17;0.40;;;;;;;1.62;47.56;101215.16;4426730;32;20076;-73
2021/04/07 04:05:14;;;;;;;7.03;0.60;;;;;;;1.58;47.72;101207.94;4425871;32;20029;-74
2021/04/07 04:07:40;;;;;;;2.87;0.60;;;;;;;1.39;48.58;101211.53;4427642;32;20116;-74
2021/04/07 04:10:07;;;;;;;1.17;0.47;;;;;;;1.39;48.03;101211.53;4425671;32;20030;-73
2021/04/07 04:12:32;;;;;;;5.95;0.52;;;;;;;1.41;47.92;101209.19;4426756;32;20063;-73
2021/04/07 04:14:59;;;;;;;3.92;0.60;;;;;;;1.38;48.17;101204.38;4428142;32;20099;-74
2021/04/07 04:17:24;;;;;;;4.80;0.70;;;;;;;1.32;48.26;101200.28;4427463;32;20128;-73
2021/04/07 04:19:50;;;;;;;4.72;0.90;;;;;;;1.28;48.48;101207.75;4428900;32;20057;-74
2021/04/07 04:22:16;;;;;;;2.53;0.50;;;;;;;1.24;48.69;101211.59;4428757;32;20108;-75
2021/04/07 04:24:42;;;;;;;6.78;0.82;;;;;;;1.30;48.58;101212.91;4424202;32;20112;-75
2021/04/07 04:27:09;;;;;;;5.93;0.40;;;;;;;1.34;47.98;101208.25;4428357;32;20081;-75
2021/04/07 04:29:36;;;;;;;1.83;0.30;;;;;;;1.32;48.15;101210.59;4427066;32;20029;-73
2021/04/07 04:32:01;;;;;;;3.83;0.98;;;;;;;1.41;48.22;101214.72;4426908;32;20057;-72
2021/04/07 04:34:27;;;;;;;6.45;0.35;;;;;;;1.43;47.90;101211.59;4425931;32;20132;-73
2021/04/07 04:36:53;;;;;;;5.07;0.40;;;;;;;1.39;48.47;101217.09;4427722;32;20093;-73
2021/04/07 04:39:19;;;;;;;1.52;0.37;;;;;;;1.35;48.12;101204.31;4427086;32;20065;-73
2021/04/07 04:41:45;;;;;;;4.75;0.65;;;;;;;1.28;48.27;101195.84;4427280;32;20057;-74
2021/04/07 04:44:11;;;;;;;5.15;0.65;;;;;;;1.29;48.49;101208.56;4427287;32;20682;-73
2021/04/07 04:46:36;;;;;;;4.35;0.90;;;;;;;1.37;48.40;101208.31;4425322;32;20034;-73
2021/04/07 04:49:02;;;;;;;7.25;0.70;;;;;;;1.29;48.69;101214.88;4430180;32;20042;-73
2021/04/07 04:51:28;;;;;;;18.90;2.17;;;;;;;1.25;48.82;101216.78;4426792;32;20103;-73
2021/04/07 04:53:54;;;;;;;17.90;1.65;;;;;;;1.26;49.01;101210.06;4428130;32;20099;-74
2021/04/07 04:56:20;;;;;;;1.90;0.40;;;;;;;1.29;48.92;101214.88;4428804;32;20420;-74
2021/04/07 04:58:46;;;;;;;1.87;0.47;;;;;;;1.21;48.63;101215.91;4426296;32;20410;-74
2021/04/07 05:01:12;;;;;;;8.45;0.70;;;;;;;1.17;48.75;101215.03;4429401;32;20113;-73
2021/04/07 05:03:38;;;;;;;12.63;1.12;;;;;;;1.33;48.53;101221.31;4428146;32;20034;-74
2021/04/07 05:06:04;;;;;;;2.67;0.40;;;;;;;1.36;48.84;101219.78;4430564;32;20050;-74
2021/04/07 05:08:30;;;;;;;3.45;0.60;;;;;;;1.30;48.78;101219.28;4428030;32;20145;-74
2021/04/07 05:10:55;;;;;;;5.35;0.93;;;;;;;1.26;48.95;101223.16;4428546;32;20138;-74
2021/04/07 05:13:21;;;;;;;6.85;0.82;;;;;;;1.27;49.20;101219.19;4428908;32;20100;-74
2021/04/07 05:15:47;;;;;;;9.63;0.70;;;;;;;1.23;49.49;101219.09;4430216;32;20067;-74
2021/04/07 05:18:15;;;;;;;5.85;1.50;;;;;;;1.17;49.86;101225.31;4428388;32;20124;-74
2021/04/07 05:20:41;;;;;;;7.28;1.67;;;;;;;1.13;50.00;101221.66;4427221;32;20473;-74
2021/04/07 05:23:07;;;;;;;24.17;4.60;;;;;;;1.11;50.30;101229.53;4428720;32;20029;-75
2021/04/07 05:25:33;;;;;;;20.83;4.00;;;;;;;1.05;50.98;101220.72;4429391;32;20042;-73
2021/04/07 05:28:04;;;;;;;8.15;3.65;;;;;;;1.14;51.09;101228.81;4425725;32;20464;-73
2021/04/07 05:30:58;;;;;;;4.47;1.70;;;;;;;1.18;51.05;101230.50;4426269;32;20319;-73
2021/04/07 05:33:18;;;;;;;3.58;1.00;;;;;;;1.14;51.41;101237.13;4426990;32;20043;-74
2021/04/07 05:35:44;;;;;;;11.95;1.37;;;;;;;1.16;51.02;101243.09;4426486;32;20038;-74
2021/04/07 05:38:10;;;;;;;2.05;0.77;;;;;;;1.09;51.15;101235.44;4429381;32;20099;-73
2021/04/07 05:40:35;;;;;;;5.30;0.65;;;;;;;1.16;50.31;101232.00;4430567;32;20041;-72
2021/04/07 05:43:02;;;;;;;5.20;0.43;;;;;;;1.23;49.57;101237.72;4428321;32;20097;-73
2021/04/07 05:45:28;;;;;;;5.78;0.88;;;;;;;1.38;48.96;101242.41;4430866;32;20045;-74
2021/04/07 05:47:53;;;;;;;12.07;1.02;;;;;;;1.50;48.31;101243.06;4431279;32;20071;-73
2021/04/07 05:50:19;;;;;;;10.02;1.05;;;;;;;1.61;48.53;101238.53;4429147;32;20096;-73
2021/04/07 05:52:50;;;;;;;21.35;2.37;;;;;;;1.67;48.25;101244.59;4428552;32;20041;-73
2021/04/07 05:55:16;;;;;;;6.28;1.33;;;;;;;1.72;48.19;101242.31;4429884;32;20092;-74
2021/04/07 05:57:44;;;;;;;10.80;1.50;;;;;;;1.80;47.96;101251.56;4429588;32;20114;-74
2021/04/07 06:00:11;;;;;;;1.67;0.50;;;;;;;1.82;47.65;101255.59;4426054;32;20073;-74
2021/04/07 06:02:36;;;;;;;8.48;1.27;;;;;;;1.96;47.54;101252.28;4428282;32;20101;-74
2021/04/07 06:05:04;;;;;;;9.70;0.85;;;;;;;2.06;47.18;101241.38;4427830;32;20037;-74
2021/04/07 06:07:29;;;;;;;3.08;0.60;;;;;;;2.08;47.02;101254.09;4427453;32;20094;-74
2021/04/07 06:09:55;;;;;;;3.03;0.60;;;;;;;2.23;46.56;101253.97;4428432;32;20109;-73
2021/04/07 06:12:21;;;;;;;7.50;0.80;;;;;;;2.30;46.55;101251.31;4427991;32;20073;-74
2021/04/07 06:14:46;;;;;;;5.93;0.70;;;;;;;2.40;46.10;101245.16;4425806;32;20064;-74
2021/04/07 06:17:12;;;;;;;8.63;0.90;;;;;;;2.47;45.99;101255.56;4428766;32;20041;-74
2021/04/07 06:19:37;;;;;;;4.50;0.90;;;;;;;2.52;46.32;101252.47;4428713;32;20033;-74
2021/04/07 06:22:03;;;;;;;2.75;0.70;;;;;;;2.58;45.71;101257.31;4413288;32;20132;-74
2021/04/07 06:24:29;;;;;;;5.68;1.10;;;;;;;2.66;45.74;101261.03;4427782;32;20065;-74
2021/04/07 06:26:55;;;;;;;4.32;0.73;;;;;;;2.74;45.70;101259.97;4427795;32;20453;-74
2021/04/07 06:29:20;;;;;;;10.40;1.45;;;;;;;2.86;45.07;101268.09;4428188;32;20091;-74
2021/04/07 06:31:46;;;;;;;4.80;0.88;;;;;;;2.92;45.31;101255.50;4426160;32;21247;-74
2021/04/07 06:34:12;;;;;;;19.67;1.55;;;;;;;2.97;45.54;101258.75;4428892;32;20053;-74
2021/04/07 06:36:37;;;;;;;8.13;0.80;;;;;;;3.13;45.21;101261.38;4429242;32;20038;-74
2021/04/07 06:39:03;;;;;;;4.95;0.60;;;;;;;3.36;44.12;101262.88;4426144;32;20468;-75
2021/04/07 06:41:29;;;;;;;2.55;0.70;;;;;;;3.20;44.58;101258.69;4427128;32;20081;-74
2021/04/07 06:43:57;;;;;;;5.93;1.42;;;;;;;3.26;44.41;101258.00;4425488;32;20037;-74
2021/04/07 06:46:23;;;;;;;9.13;0.90;;;;;;;3.34;44.54;101256.06;4427018;32;20097;-74
2021/04/07 06:48:52;;;;;;;6.70;0.77;;;;;;;3.37;44.50;101261.69;4425595;32;20073;-74
2021/04/07 06:51:20;;;;;;;5.68;1.02;;;;;;;3.45;44.19;101273.72;4426201;32;20081;-74
2021/04/07 06:53:50;;;;;;;11.32;0.95;;;;;;;3.55;43.69;101275.84;4426158;32;20053;-74
2021/04/07 06:56:18;;;;;;;8.07;0.98;;;;;;;3.55;43.51;101268.28;4427157;32;20044;-74
2021/04/07 06:58:45;;;;;;;8.00;0.80;;;;;;;3.70;43.63;101261.72;4425282;32;20089;-73
2021/04/07 07:01:11;;;;;;;5.43;0.88;;;;;;;3.63;43.44;101274.75;4426334;32;20073;-73
2021/04/07 07:03:37;;;;;;;3.78;0.50;;;;;;;3.73;43.40;101276.84;4425271;32;20202;-75
2021/04/07 07:06:02;;;;;;;4.37;0.73;;;;;;;3.75;43.16;101274.50;4429698;32;20046;-75
2021/04/07 07:08:31;;;;;;;3.22;1.33;;;;;;;3.74;43.22;101279.25;4427014;32;20496;-75
2021/04/07 07:11:15;;;;;;;6.03;0.55;;;;;;;3.87;43.00;101275.03;4426177;32;20045;-73
2021/04/07 07:13:42;;;;;;;4.22;0.60;;;;;;;3.99;42.40;101276.78;4427007;32;20050;-73
2021/04/07 07:16:07;;;;;;;4.57;0.55;;;;;;;4.08;42.24;101278.06;4415349;32;20033;-73
2021/04/07 07:18:33;;;;;;;21.65;2.05;;;;;;;3.96;42.33;101283.91;4426263;32;20465;-73
2021/04/07 07:20:59;;;;;;;2.75;0.50;;;;;;;4.13;42.26;101282.50;4425588;32;20129;-73
2021/04/07 07:23:31;;;;;;;2.47;0.20;;;;;;;4.21;41.51;101284.19;4425349;32;20065;-76
2021/04/07 07:28:43;;;;;;;2.65;0.70;;;;;;;4.89;40.70;101287.19;3986338;32;15027453;-73
2021/04/07 07:31:26;;;;;;;3.92;0.45;;;;;;;4.89;40.70;101287.19;4433788;32;20067;-73
2021/04/07 07:33:54;;;;;;;12.93;1.27;;;;;;;4.54;40.90;101286.88;4432457;32;20136;-73
2021/04/07 07:36:20;;;;;;;5.12;0.55;;;;;;;4.78;41.05;101297.44;4435614;32;20061;-73
2021/04/07 07:41:31;;;;;;;3.37;0.50;;;;;;;5.46;38.84;101296.72;3978448;32;15022055;-74
2021/04/07 07:43:57;;;;;;;5.93;0.90;;;;;;;5.46;38.84;101296.72;4438203;32;20086;-73
2021/04/07 07:46:27;;;;;;;9.40;1.20;;;;;;;5.09;39.51;101296.09;4440868;32;20380;-73
2021/04/07 07:48:53;;;;;;;4.25;0.50;;;;;;;5.18;38.95;101300.12;4436500;32;20336;-73
2021/04/07 07:51:22;;;;;;;8.80;0.85;;;;;;;5.10;39.24;101292.91;4435284;32;20080;-73
2021/04/07 07:53:50;;;;;;;3.28;0.60;;;;;;;5.18;39.07;101288.16;4434711;32;20033;-73
2021/04/07 07:56:18;;;;;;;2.12;0.40;;;;;;;5.15;39.23;101292.53;4441321;32;20403;-73
2021/04/07 07:58:46;;;;;;;6.18;0.30;;;;;;;5.37;39.02;101290.69;4436425;32;20034;-73
2021/04/07 08:01:14;;;;;;;8.95;0.90;;;;;;;5.45;37.72;101297.91;4437751;32;20200;-74
2021/04/07 08:03:41;;;;;;;9.48;2.58;;;;;;;5.57;38.26;101305.94;4433204;32;20052;-73
2021/04/07 08:06:07;;;;;;;5.68;0.73;;;;;;;5.51;37.65;101299.13;4429483;32;20099;-74
2021/04/07 08:08:33;;;;;;;11.93;1.67;;;;;;;5.57;37.22;101298.37;4432135;32;20046;-74
2021/04/07 08:11:02;;;;;;;3.45;0.50;;;;;;;5.69;37.54;101309.22;4435485;32;20149;-74
2021/04/07 08:13:36;;;;;;;3.83;0.50;;;;;;;5.82;37.27;101302.09;4417335;32;20623;-74
2021/04/07 08:16:03;;;;;;;6.87;0.70;;;;;;;5.98;36.94;101302.56;4433063;32;20069;-73
2021/04/07 08:18:30;;;;;;;3.55;0.52;;;;;;;6.15;36.51;101303.81;4433547;32;20120;-73
2021/04/07 08:20:56;;;;;;;1.42;0.30;;;;;;;6.32;36.18;101307.84;4434695;32;20140;-74
2021/04/07 08:23:24;;;;;;;12.73;0.60;;;;;;;6.23;35.51;101299.84;4433768;32;20409;-74
2021/04/07 08:25:54;;;;;;;5.85;0.80;;;;;;;6.34;35.62;101306.25;4434074;32;20127;-75
2021/04/07 08:28:22;;;;;;;3.45;0.93;;;;;;;6.36;35.52;101317.03;4432278;32;20288;-73
2021/04/07 08:30:49;;;;;;;2.45;0.60;;;;;;;6.46;35.21;101313.47;4420554;32;20094;-75
2021/04/07 08:33:20;;;;;;;6.12;0.82;;;;;;;6.52;34.52;101314.66;4421466;32;20422;-75
2021/04/07 08:35:50;;;;;;;4.03;0.35;;;;;;;6.79;34.65;101324.28;4432311;32;20315;-75
2021/04/07 08:38:16;;;;;;;2.10;0.50;;;;;;;7.09;34.04;101314.28;4431260;32;20069;-75
2021/04/07 08:40:43;;;;;;;6.87;0.75;;;;;;;7.34;33.28;101317.06;4429402;32;20037;-75
2021/04/07 08:43:12;;;;;;;7.75;0.93;;;;;;;7.88;32.41;101317.31;4430994;32;20164;-76
2021/04/07 08:45:45;;;;;;;2.42;0.47;;;;;;;7.92;32.31;101312.47;4433729;32;20349;-75
2021/04/07 08:48:18;;;;;;;7.95;0.50;;;;;;;8.02;32.27;101316.44;4437801;32;20064;-76
2021/04/07 08:50:47;;;;;;;6.05;0.52;;;;;;;8.05;32.11;101321.25;4435328;32;20030;-75
2021/04/07 08:53:15;;;;;;;2.62;0.55;;;;;;;8.34;31.60;101313.53;4424212;32;20472;-76
2021/04/07 08:56:03;;;;;;;2.70;0.75;;;;;;;8.87;30.86;101328.75;4427752;32;20048;-73
2021/04/07 08:58:28;;;;;;;5.15;0.70;;;;;;;8.99;30.36;101322.66;4426117;32;20053;-74
2021/04/07 09:00:57;;;;;;;3.67;0.45;;;;;;;9.24;29.92;101323.22;4423458;32;20109;-74
2021/04/07 09:03:26;;;;;;;3.87;0.70;;;;;;;9.24;30.04;101328.84;4422346;32;20414;-74
2021/04/07 09:05:52;;;;;;;6.50;0.57;;;;;;;8.55;30.57;101327.38;4421573;32;20085;-74
2021/04/07 09:08:24;;;;;;;5.57;0.95;;;;;;;8.59;30.64;101340.19;4423657;32;20417;-74
2021/04/07 09:10:52;;;;;;;4.18;0.45;;;;;;;8.63;30.37;101320.53;4420912;32;20089;-74
2021/04/07 09:13:25;;;;;;;1.33;0.37;;;;;;;9.14;30.06;101337.38;4421913;32;20416;-74
2021/04/07 09:15:53;;;;;;;3.45;0.50;;;;;;;8.90;29.71;101339.16;4425196;32;20412;-74
2021/04/07 09:18:33;;;;;;;9.32;0.50;;;;;;;8.93;29.59;101326.31;4425813;32;20073;-75
2021/04/07 09:21:00;;;;;;;2.67;0.40;;;;;;;9.45;29.49;101325.81;4422529;32;20193;-75
2021/04/07 09:28:48;;;;;;;2.80;0.43;;;;;;;10.27;27.38;101348.22;3997977;31;15020590;-72
2021/04/07 09:31:18;;;;;;;7.05;1.15;;;;;;;10.27;27.38;101348.22;4457696;32;20222;-74
2021/04/07 09:33:48;;;;;;;3.55;0.60;;;;;;;9.67;28.43;101337.66;4457147;32;20320;-73
2021/04/07 09:36:15;;;;;;;7.50;0.73;;;;;;;10.07;28.71;101346.03;4457426;32;20096;-72
2021/04/07 09:38:51;;;;;;;3.20;1.08;;;;;;;10.68;28.10;101343.22;4456174;32;20657;-73
2021/04/07 09:43:56;;;;;;;6.22;1.73;;;;;;;10.66;26.99;101343.62;3984998;32;15022803;-73
2021/04/07 09:46:24;;;;;;;4.87;1.40;;;;;;;10.66;26.99;101343.62;4442324;32;20080;-74
2021/04/07 09:51:43;;;;;;;3.40;0.62;;;;;;;9.83;27.75;101357.53;3984036;32;15026256;-75
2021/04/07 09:59:47;;;;;;;12.63;6.07;;;;;;;11.19;26.63;101342.78;3985346;32;15023207;-74
2021/04/07 10:02:23;;;;;;;3.17;0.60;;;;;;;11.19;26.63;101342.78;4426300;32;20412;-73
2021/04/07 10:04:51;;;;;;;3.12;0.57;;;;;;;11.24;26.34;101340.28;4423541;32;20475;-74
2021/04/07 10:07:21;;;;;;;3.37;0.70;;;;;;;11.39;26.23;101358.50;4425474;32;20069;-74
2021/04/07 10:09:50;;;;;;;6.22;1.17;;;;;;;11.01;26.07;101347.91;4421385;32;20105;-74
2021/04/07 10:12:18;;;;;;;5.18;0.73;;;;;;;11.07;26.54;101357.47;4426075;32;20090;-73
2021/04/07 10:14:55;;;;;;;7.72;0.93;;;;;;;11.47;25.95;101353.53;4421961;32;20227;-73
2021/04/07 10:17:25;;;;;;;3.30;0.60;;;;;;;11.82;25.73;101342.44;4424503;32;21496;-73
2021/04/07 10:19:51;;;;;;;5.47;1.00;;;;;;;12.02;25.44;101354.53;4421054;32;20117;-72
2021/04/07 10:22:26;;;;;;;6.70;0.85;;;;;;;12.40;25.36;101342.88;4422599;32;20653;-74
2021/04/07 10:24:57;;;;;;;5.05;0.50;;;;;;;12.25;25.63;101344.41;4421471;32;20549;-74
2021/04/07 10:27:24;;;;;;;3.08;0.75;;;;;;;12.17;25.19;101349.41;4421927;32;20169;-74
2021/04/07 10:30:09;;;;;;;3.28;0.55;;;;;;;11.72;25.78;101339.84;4422114;32;20034;-74
2021/04/07 10:32:44;;;;;;;4.53;0.70;;;;;;;11.57;26.33;101361.03;4423353;32;20098;-74
2021/04/07 10:35:16;;;;;;;;;;;;;;;11.32;26.40;101349.41;4425566;32;20089;-74
2021/04/07 10:37:50;;;;;;;4.78;1.00;;;;;;;11.77;26.43;101350.59;4425940;32;20393;-74
2021/04/07 10:40:27;;;;;;;1.52;0.43;;;;;;;11.71;26.36;101360.78;4421569;32;20042;-73
2021/04/07 10:42:53;;;;;;;5.40;1.23;;;;;;;11.39;26.48;101352.09;4424945;32;20053;-73
2021/04/07 10:45:21;;;;;;;3.83;0.62;;;;;;;11.73;25.88;101353.47;4425668;32;20095;-74
2021/04/07 10:47:48;;;;;;;3.40;0.60;;;;;;;11.64;25.53;101366.56;4425630;32;20042;-73
2021/04/07 10:50:15;;;;;;;2.12;0.60;;;;;;;12.27;24.80;101362.47;4422030;32;20073;-73
2021/04/07 10:52:43;;;;;;;4.50;0.50;;;;;;;12.61;24.40;101357.28;4424905;32;20026;-74
2021/04/07 10:57:51;;;;;;;3.45;0.70;;;;;;;15.32;21.72;101373.97;3983109;32;15077340;-74
2021/04/07 11:00:35;;;;;;;2.25;0.60;;;;;;;15.32;21.72;101373.97;4440202;32;20025;-74
2021/04/07 11:03:02;;;;;;;4.75;0.60;;;;;;;15.67;21.08;101360.62;4416075;32;20552;-74
2021/04/07 11:08:18;;;;;;;2.37;0.57;;;;;;;15.93;20.84;101376.31;3981828;32;15028112;-74
2021/04/07 11:10:48;;;;;;;4.53;0.77;;;;;;;15.93;20.84;101376.31;4437695;32;20586;-75
2021/04/07 11:13:15;;;;;;;4.95;0.70;;;;;;;15.76;21.06;101355.03;4439050;32;20072;-74
2021/04/07 11:15:41;;;;;;;3.72;0.40;;;;;;;16.27;20.79;101369.78;4440154;32;20069;-74
2021/04/07 11:18:07;;;;;;;3.92;0.60;;;;;;;15.79;20.22;101371.12;4438183;32;20428;-73
2021/04/07 11:20:34;;;;;;;6.18;0.73;;;;;;;15.19;21.05;101361.81;4438965;32;20045;-73
2021/04/07 11:23:00;;;;;;;1.58;0.40;;;;;;;15.86;20.49;101357.50;4440635;32;20410;-73
2021/04/07 11:25:27;;;;;;;4.60;0.60;;;;;;;16.56;19.60;101358.97;4433528;32;20045;-74
2021/04/07 11:27:56;;;;;;;1.58;0.57;;;;;;;17.63;19.17;101361.44;4429309;32;20489;-74
2021/04/07 11:30:23;;;;;;;3.03;0.55;;;;;;;17.97;18.87;101351.81;4437894;32;20432;-74
2021/04/07 11:32:54;;;;;;;3.58;0.93;;;;;;;17.34;18.93;101361.03;4437406;32;20081;-74
2021/04/07 11:37:59;;;;;;;3.40;0.80;;;;;;;16.46;19.57;101372.34;3996222;31;15023634;-75
2021/04/07 11:40:59;;;;;;;2.87;0.75;;;;;;;16.46;19.57;101372.34;4458806;32;20112;-75
2021/04/07 11:45:49;;;;;;;4.78;0.88;;;;;;;17.83;18.34;101373.16;3978276;32;15024970;-75
2021/04/07 11:48:15;;;;;;;10.20;3.33;;;;;;;17.83;18.34;101373.16;4434766;32;20033;-76
2021/04/07 11:50:40;;;;;;;4.15;0.70;;;;;;;16.92;19.05;101376.22;4432107;32;20477;-74
2021/04/07 11:53:06;;;;;;;11.38;3.28;;;;;;;15.38;20.36;101365.69;4433212;32;20102;-74
2021/04/07 11:55:32;;;;;;;8.82;2.15;;;;;;;14.83;21.21;101361.41;4437848;32;20068;-74
2021/04/07 11:57:59;;;;;;;9.77;2.35;;;;;;;14.47;21.57;101363.72;4432514;32;20143;-74
2021/04/07 12:00:25;;;;;;;8.05;2.20;;;;;;;14.21;22.27;101361.25;4431633;32;20072;-74
2021/04/07 12:02:51;;;;;;;18.83;7.87;;;;;;;13.61;23.37;101358.06;4432825;32;20540;-73
2021/04/07 12:05:22;;;;;;;14.15;5.62;;;;;;;12.91;23.85;101359.81;4432602;32;20029;-73
2021/04/07 12:07:49;;;;;;;2.25;1.00;;;;;;;12.52;24.46;101357.09;4432150;32;20025;-73